»·PEaware :: DAL9T KGCN-KGCN

DAL9T :: KGCN-KGCN

FLIGHT INFORMATION

Flight Status: Arrived
Operator:
Delta Air Lines
More flights by this operator :: More flights under this callsign
Pilot: Thomas S. (17015)
Aircraft: AIRBUS A320
(A320)
More flights by this aircraft type
Origin: KGCN Grand Canyon Natl Park
United States
Destination: KGCN Grand Canyon Natl Park
United States
More flights between these airports :: More routes between these airports
Route:
File this flight plan on PilotEdge
Remarks: Arial Photography
Altitude:
(Current/Filed)
2,500ft
Speed:
(Current/Filed)
180kts
Departed: 19-Aug-18 03:54 AM
Arrived: 19-Aug-18 04:39 AM
Distance/Time
Traveled:
0nm/0:45
Distance/Time
To Go:
Arrived

Flight Plot

Page will automatically refresh every two minutes.


Map Options




Map Legend


Flown Route
Filed Route
Departure Airport
Arrival Airport
Navaid (VOR, NDB)
Fix

Horizontal Profiles

Position Reports

Time Latitude Longitude Heading Altitude Ground
Speed
19-Aug-18 03:24 35.960901 -112.134974 220 6611ft 0kts
19-Aug-18 03:25 35.960901 -112.134974 220 6611ft 0kts
19-Aug-18 03:26 35.960901 -112.134974 220 6611ft 0kts
19-Aug-18 03:27 35.960901 -112.134974 220 6611ft 0kts
19-Aug-18 03:28 35.960901 -112.134974 220 6611ft 0kts
19-Aug-18 03:29 35.960901 -112.134974 220 6611ft 0kts
19-Aug-18 03:30 35.960901 -112.134974 220 6611ft 0kts
19-Aug-18 03:31 35.960901 -112.134974 220 6611ft 0kts
19-Aug-18 03:32 35.960901 -112.134974 220 6611ft 0kts
19-Aug-18 03:33 35.960901 -112.134974 220 6611ft 0kts
19-Aug-18 03:34 35.960901 -112.134974 220 6611ft 0kts
19-Aug-18 03:35 35.960901 -112.134974 220 6611ft 0kts
19-Aug-18 03:36 35.960901 -112.134974 220 6611ft 0kts
19-Aug-18 03:37 35.960901 -112.134974 220 6611ft 0kts
19-Aug-18 03:38 35.960901 -112.134974 220 6611ft 0kts
19-Aug-18 03:39 35.960901 -112.134974 220 6611ft 0kts
19-Aug-18 03:40 35.961000 -112.135508 304 6611ft 0kts
19-Aug-18 03:41 35.961000 -112.135508 304 6611ft 0kts
19-Aug-18 03:42 35.961000 -112.135508 304 6611ft 0kts
19-Aug-18 03:43 35.961000 -112.135508 304 6611ft 0kts
19-Aug-18 03:44 35.961000 -112.135508 304 6611ft 0kts
19-Aug-18 03:45 35.961000 -112.135508 304 6611ft 0kts
19-Aug-18 03:46 35.961000 -112.135508 304 6611ft 0kts
19-Aug-18 03:47 35.961000 -112.135508 304 6611ft 0kts
19-Aug-18 03:48 35.961000 -112.135508 304 6611ft 0kts
19-Aug-18 03:49 35.959171 -112.137920 219 6611ft 35kts
19-Aug-18 03:50 35.951229 -112.146362 220 6611ft 39kts
19-Aug-18 03:51 35.943659 -112.154410 219 6611ft 34kts
19-Aug-18 03:52 35.942399 -112.155926 280 6611ft 0kts
19-Aug-18 03:53 35.942399 -112.155926 280 6611ft 0kts
19-Aug-18 03:54 35.942976 -112.156667 359 6611ft 7kts
19-Aug-18 03:55 35.971892 -112.126315 40 8161ft 245kts
19-Aug-18 03:56 36.036165 -112.073165 20 11747ft 314kts
19-Aug-18 03:57 36.122340 -112.034340 20 13741ft 382kts
19-Aug-18 03:58 36.200305 -111.968939 38 13389ft 285kts
19-Aug-18 03:59 36.227647 -111.897056 119 13023ft 250kts
19-Aug-18 04:00 36.167825 -111.892520 221 13019ft 250kts
19-Aug-18 04:01 36.117252 -111.951465 226 13017ft 250kts
19-Aug-18 04:02 36.062486 -112.019745 226 13013ft 297kts
19-Aug-18 04:03 36.004077 -112.092382 226 13009ft 330kts
19-Aug-18 04:04 35.937252 -112.175866 226 13009ft 344kts
19-Aug-18 04:05 35.916836 -112.272015 307 13015ft 279kts
19-Aug-18 04:06 35.979499 -112.270812 45 13018ft 263kts
19-Aug-18 04:07 36.027717 -112.203922 46 13015ft 264kts
19-Aug-18 04:08 36.077220 -112.135372 46 13009ft 289kts
19-Aug-18 04:09 36.131141 -112.061211 46 13013ft 295kts
19-Aug-18 04:10 36.185605 -111.986296 46 13011ft 292kts
19-Aug-18 04:11 36.239877 -111.911628 46 13011ft 292kts
19-Aug-18 04:12 36.294256 -111.836812 46 13013ft 290kts
19-Aug-18 04:13 36.347205 -111.763927 46 12923ft 289kts
19-Aug-18 04:14 36.400165 -111.691093 46 12846ft 291kts
19-Aug-18 04:15 36.453799 -111.617374 46 12811ft 291kts
19-Aug-18 04:16 36.507927 -111.542977 46 12811ft 291kts
19-Aug-18 04:17 36.562310 -111.468221 46 12811ft 291kts
19-Aug-18 04:18 36.614940 -111.395864 46 12811ft 291kts
19-Aug-18 04:19 36.667510 -111.323633 46 12809ft 303kts
19-Aug-18 04:20 36.723350 -111.246978 46 12810ft 303kts
19-Aug-18 04:21 36.779001 -111.170565 46 12810ft 303kts
19-Aug-18 04:22 36.833850 -111.095205 46 12810ft 303kts
19-Aug-18 04:23 36.831105 -111.002297 137 12809ft 318kts
19-Aug-18 04:24 36.755674 -111.007298 228 11361ft 307kts
19-Aug-18 04:25 36.700335 -111.083660 229 9904ft 296kts
19-Aug-18 04:26 36.646028 -111.158735 228 9818ft 296kts
19-Aug-18 04:27 36.595446 -111.228610 228 9817ft 296kts
19-Aug-18 04:28 36.540667 -111.304153 228 9817ft 296kts
19-Aug-18 04:29 36.487707 -111.383618 231 11119ft 319kts
19-Aug-18 04:30 36.429012 -111.472479 231 12811ft 338kts
19-Aug-18 04:31 36.369420 -111.562098 231 12817ft 340kts
19-Aug-18 04:32 36.309477 -111.651990 231 12861ft 339kts
19-Aug-18 04:33 36.251858 -111.738122 231 12958ft 338kts
19-Aug-18 04:34 36.192063 -111.827536 231 13000ft 337kts
19-Aug-18 04:35 36.134532 -111.913180 231 12864ft 306kts
19-Aug-18 04:36 36.084108 -111.987936 231 11340ft 263kts
19-Aug-18 04:37 36.036377 -112.055109 226 9758ft 250kts
19-Aug-18 04:38 35.995393 -112.101434 221 8159ft 174kts
19-Aug-18 04:39 35.962693 -112.135978 220 6690ft 140kts
19-Aug-18 04:40 35.947268 -112.151471 144 6611ft 17kts
19-Aug-18 04:41 35.950154 -112.147462 41 6611ft 20kts
19-Aug-18 04:42 35.953641 -112.143193 129 6611ft 4kts

Navigation Log

Ident Type
Flight plan parsing failed, navigation log unavailable